Time;durP1;ratioP1;P1;durP2;ratioP2;P2;SDS_P1;SDS_P2;PMS_P1;PMS_P2;Temp;Humidity;BMP_temperature;BMP_pressure;BME280_temperature;BME280_humidity;BME280_pressure;Samples;Min_cycle;Max_cycle;Signal;HPM_P1;HPM_P2
2022/03/22 00:00:35;;;;;;;43.85;21.38;;;;;;;11.07;48.33;102661.25;5076089;28;20489;-61
2022/03/22 00:03:04;;;;;;;46.80;20.35;;;;;;;10.99;48.08;102661.81;5076596;28;20500;-61
2022/03/22 00:05:32;;;;;;;37.72;19.83;;;;;;;11.02;48.39;102666.03;5073631;28;20097;-61
2022/03/22 00:08:01;;;;;;;37.15;20.33;;;;;;;10.95;47.67;102662.97;5075369;28;20059;-62
2022/03/22 00:10:28;;;;;;;40.25;20.15;;;;;;;10.99;47.45;102664.47;5074950;28;20439;-61
2022/03/22 00:13:10;;;;;;;47.72;19.23;;;;;;;10.95;47.67;102662.97;5046045;28;20041;-62
2022/03/22 00:15:37;;;;;;;47.28;22.27;;;;;;;10.91;47.86;102670.31;5074381;28;20037;-62
2022/03/22 00:18:24;;;;;;;40.63;20.83;;;;;;;10.92;47.50;102671.16;5075394;28;20084;-61
2022/03/22 00:20:52;;;;;;;39.97;18.77;;;;;;;10.86;47.69;102669.78;5074133;28;20048;-62
2022/03/22 00:23:21;;;;;;;46.38;21.13;;;;;;;10.76;48.19;102671.41;5074722;28;20040;-62
2022/03/22 00:25:48;;;;;;;40.42;20.45;;;;;;;10.71;47.44;102673.53;5075615;28;20044;-62
2022/03/22 00:28:15;;;;;;;42.22;19.90;;;;;;;10.66;48.09;102673.00;5074692;28;20045;-61
2022/03/22 00:30:43;;;;;;;38.28;19.27;;;;;;;10.73;47.88;102672.47;5073968;28;20048;-62
2022/03/22 00:33:10;;;;;;;40.95;19.63;;;;;;;10.64;47.54;102670.47;5074350;28;20511;-61
2022/03/22 00:35:38;;;;;;;40.35;20.48;;;;;;;10.71;47.95;102662.91;5068009;28;20131;-62
2022/03/22 00:38:08;;;;;;;45.30;20.02;;;;;;;10.74;46.62;102671.50;5048857;28;20051;-61
2022/03/22 00:40:35;;;;;;;36.30;20.05;;;;;;;10.74;47.35;102673.31;5057701;28;20036;-62
2022/03/22 00:43:02;;;;;;;40.38;19.33;;;;;;;10.70;47.58;102670.03;5074498;28;20053;-61
2022/03/22 00:45:32;;;;;;;43.22;20.67;;;;;;;10.64;46.48;102678.44;5075240;28;20040;-62
2022/03/22 00:48:00;;;;;;;37.50;19.25;;;;;;;10.65;47.47;102679.28;5075678;28;20098;-61
2022/03/22 00:50:33;;;;;;;39.15;20.33;;;;;;;10.63;46.25;102670.56;5073967;28;20136;-61
2022/03/22 00:53:01;;;;;;;40.88;19.10;;;;;;;10.69;46.37;102676.28;5075451;28;20087;-61
2022/03/22 00:55:29;;;;;;;42.85;19.95;;;;;;;10.64;46.29;102672.25;5073805;28;20055;-62
2022/03/22 00:57:58;;;;;;;36.85;19.60;;;;;;;10.66;46.04;102667.69;5041850;28;20151;-61
2022/03/22 01:00:26;;;;;;;43.75;19.73;;;;;;;10.56;46.33;102664.81;5035644;28;20053;-63
2022/03/22 01:02:55;;;;;;;45.33;19.95;;;;;;;10.62;45.47;102674.16;5055383;28;20037;-62
2022/03/22 01:05:23;;;;;;;40.58;20.10;;;;;;;10.59;46.13;102672.59;5053553;28;20052;-62
2022/03/22 01:07:54;;;;;;;41.28;19.55;;;;;;;10.57;46.53;102669.19;5053893;28;20053;-62
2022/03/22 01:10:25;;;;;;;39.83;20.02;;;;;;;10.60;47.46;102671.63;5054678;28;20047;-62
2022/03/22 01:12:52;;;;;;;43.28;19.25;;;;;;;10.57;46.67;102674.50;5065547;28;20056;-62
2022/03/22 01:15:22;;;;;;;40.95;19.25;;;;;;;10.49;47.02;102677.66;5053490;28;20045;-62
2022/03/22 01:17:53;;;;;;;38.00;19.50;;;;;;;10.55;46.65;102674.59;5048680;28;20517;-62
2022/03/22 01:20:25;;;;;;;43.33;20.30;;;;;;;10.48;46.61;102677.78;5053259;28;20037;-62
2022/03/22 01:22:54;;;;;;;39.15;19.25;;;;;;;10.46;46.79;102677.03;5054906;28;20514;-62
2022/03/22 01:25:25;;;;;;;40.95;20.63;;;;;;;10.49;46.63;102674.16;5069378;28;20043;-63
2022/03/22 01:27:53;;;;;;;43.63;20.60;;;;;;;10.51;46.64;102674.91;5074040;28;20048;-63
2022/03/22 01:30:22;;;;;;;41.55;20.58;;;;;;;10.47;46.81;102671.63;5073130;28;20072;-62
2022/03/22 01:32:50;;;;;;;37.80;19.55;;;;;;;10.44;46.22;102671.84;5073376;28;20088;-61
2022/03/22 01:35:21;;;;;;;37.37;19.77;;;;;;;10.42;45.78;102667.59;5070053;28;20036;-62
2022/03/22 01:37:48;;;;;;;41.35;19.20;;;;;;;10.40;45.81;102667.69;5056439;28;20294;-62
2022/03/22 01:40:17;;;;;;;36.38;18.92;;;;;;;10.37;46.21;102665.28;5056836;28;20493;-62
2022/03/22 01:42:45;;;;;;;36.97;19.38;;;;;;;10.44;46.43;102665.69;5073251;28;20062;-62
2022/03/22 01:45:13;;;;;;;37.97;18.85;;;;;;;10.40;46.70;102667.69;5074020;28;20040;-62
2022/03/22 01:47:46;;;;;;;38.80;19.10;;;;;;;10.37;46.07;102666.09;5070088;28;20049;-61
2022/03/22 01:50:15;;;;;;;41.05;20.45;;;;;;;10.36;46.44;102664.41;5072754;28;20489;-62
2022/03/22 01:52:44;;;;;;;39.63;20.73;;;;;;;10.22;46.32;102658.31;5074470;28;20041;-61
2022/03/22 01:55:15;;;;;;;39.22;19.65;;;;;;;10.25;46.33;102658.13;5073960;28;20044;-62
2022/03/22 01:57:42;;;;;;;42.53;19.80;;;;;;;10.18;47.02;102657.69;5074174;28;20048;-61
2022/03/22 02:00:13;;;;;;;38.97;20.27;;;;;;;10.15;46.71;102657.88;5072800;28;20040;-62
2022/03/22 02:05:57;;;;;;;36.65;18.60;;;;;;;10.09;46.21;102656.50;5088497;28;20052;-62
2022/03/22 02:08:29;;;;;;;40.33;18.73;;;;;;;10.07;45.92;102661.06;5087465;28;20512;-62
2022/03/22 02:10:59;;;;;;;35.47;19.10;;;;;;;9.97;46.59;102660.00;5088820;28;20161;-62
2022/03/22 02:13:27;;;;;;;34.05;18.30;;;;;;;9.92;46.74;102652.34;5072753;28;20409;-62
2022/03/22 02:15:58;;;;;;;39.75;20.10;;;;;;;9.99;46.88;102656.28;5088778;28;20546;-62
2022/03/22 02:18:26;;;;;;;38.55;19.20;;;;;;;9.94;46.45;102657.53;5090037;28;20048;-62
2022/03/22 02:20:54;;;;;;;42.42;20.30;;;;;;;9.88;46.34;102648.19;5071380;28;20040;-62
2022/03/22 02:25:59;;;;;;;37.13;18.77;;;;;;;9.88;46.83;102644.72;5131051;27;20115;-62
2022/03/22 02:28:26;;;;;;;35.38;19.52;;;;;;;9.83;46.40;102639.69;5109195;28;20043;-61
2022/03/22 02:30:53;;;;;;;34.85;19.10;;;;;;;9.87;46.52;102635.03;5110501;28;20442;-62
2022/03/22 02:33:20;;;;;;;37.50;18.70;;;;;;;9.88;46.21;102645.56;5110258;28;20555;-61
2022/03/22 02:35:47;;;;;;;38.20;18.92;;;;;;;9.82;45.66;102640.66;5107884;28;20500;-62
2022/03/22 02:38:14;;;;;;;38.90;18.60;;;;;;;9.86;46.60;102636.84;5104804;28;20452;-61
2022/03/22 02:40:41;;;;;;;44.72;19.75;;;;;;;9.92;46.17;102636.44;5109102;28;20568;-61
2022/03/22 02:43:08;;;;;;;37.38;19.05;;;;;;;9.94;45.39;102641.63;5108841;28;20036;-62
2022/03/22 02:45:35;;;;;;;36.25;19.35;;;;;;;9.95;46.43;102635.38;5108963;28;20119;-61
2022/03/22 02:48:02;;;;;;;35.08;19.45;;;;;;;9.98;46.00;102640.47;5108669;28;20450;-61
2022/03/22 02:50:28;;;;;;;36.72;18.90;;;;;;;9.94;46.10;102639.81;5092054;28;20051;-61
2022/03/22 02:52:55;;;;;;;38.05;19.10;;;;;;;9.93;45.92;102635.50;5075257;28;20093;-61
2022/03/22 02:55:22;;;;;;;35.22;18.20;;;;;;;9.88;45.34;102634.09;5109767;28;20039;-61
2022/03/22 02:57:50;;;;;;;37.35;17.92;;;;;;;9.88;45.99;102634.94;5108755;28;20047;-61
2022/03/22 03:00:17;;;;;;;39.40;19.15;;;;;;;9.79;45.91;102636.41;5110143;28;20040;-61
2022/03/22 03:02:48;;;;;;;39.28;18.95;;;;;;;9.80;45.80;102637.25;5081779;28;20400;-61
2022/03/22 03:05:16;;;;;;;38.72;19.20;;;;;;;9.74;46.07;102640.31;5085911;28;20119;-61
2022/03/22 03:07:43;;;;;;;34.67;18.45;;;;;;;9.75;46.22;102642.00;5089373;28;20044;-61
2022/03/22 03:10:10;;;;;;;36.55;18.88;;;;;;;9.75;46.33;102644.66;5088141;28;20072;-61
2022/03/22 03:12:37;;;;;;;38.65;18.67;;;;;;;9.72;45.18;102640.41;5086728;28;20233;-61
2022/03/22 03:15:07;;;;;;;35.95;18.48;;;;;;;9.79;45.82;102638.22;5108084;28;20040;-62
2022/03/22 03:17:35;;;;;;;33.03;17.15;;;;;;;9.75;45.37;102644.66;5074831;28;20131;-62
2022/03/22 03:20:03;;;;;;;34.53;17.60;;;;;;;9.64;46.05;102641.88;5109590;28;20043;-62
2022/03/22 03:22:30;;;;;;;33.72;17.60;;;;;;;9.68;46.52;102640.72;5095986;28;20090;-62
2022/03/22 03:24:58;;;;;;;38.67;18.35;;;;;;;9.60;46.44;102641.22;5107353;28;20048;-62
2022/03/22 03:27:25;;;;;;;40.97;19.13;;;;;;;9.56;45.53;102637.94;5091500;28;20056;-62
2022/03/22 03:29:51;;;;;;;33.80;18.23;;;;;;;9.52;45.07;102641.72;5108040;28;20043;-61
2022/03/22 03:32:18;;;;;;;41.53;18.73;;;;;;;9.52;46.04;102651.50;5109384;28;20047;-61
2022/03/22 03:34:47;;;;;;;36.83;16.85;;;;;;;9.51;45.65;102647.97;5105274;28;20036;-60
2022/03/22 03:37:15;;;;;;;38.72;17.85;;;;;;;9.50;45.50;102648.09;5095197;28;20044;-61
2022/03/22 03:39:41;;;;;;;35.20;17.95;;;;;;;9.50;45.15;102648.09;5095940;28;20071;-60
2022/03/22 03:42:09;;;;;;;43.28;17.60;;;;;;;9.47;45.46;102649.13;5094464;28;20036;-60
2022/03/22 03:47:23;;;;;;;36.28;17.67;;;;;;;9.49;45.12;102656.97;5095508;28;20488;-60
2022/03/22 03:49:54;;;;;;;34.78;17.23;;;;;;;9.49;44.74;102660.47;5095176;28;20110;-60
2022/03/22 03:52:25;;;;;;;36.60;17.42;;;;;;;9.41;44.58;102662.78;5095814;28;20115;-61
2022/03/22 03:54:53;;;;;;;;;;;;;;;9.38;45.00;102662.97;5094938;28;20055;-61
2022/03/22 03:57:21;;;;;;;33.55;17.15;;;;;;;9.33;45.25;102673.88;5094284;28;19946;-61
2022/03/22 03:59:48;;;;;;;36.60;17.95;;;;;;;9.28;45.43;102672.44;5077419;28;20109;-61
2022/03/22 04:02:17;;;;;;;34.83;17.98;;;;;;;9.25;45.60;102670.88;5094378;28;20044;-61
2022/03/22 04:04:51;;;;;;;34.00;17.63;;;;;;;9.23;45.38;102673.59;5088629;28;20060;-61
2022/03/22 04:07:26;;;;;;;36.25;16.70;;;;;;;9.30;44.81;102670.59;5071577;28;20040;-61
2022/03/22 04:09:54;;;;;;;33.13;16.58;;;;;;;9.29;45.75;102672.34;5077933;28;20051;-61
2022/03/22 04:12:22;;;;;;;30.63;16.73;;;;;;;9.20;45.46;102671.16;5060238;28;20492;-61
2022/03/22 04:14:51;;;;;;;30.77;16.17;;;;;;;9.19;46.02;102672.09;5093652;28;20067;-62
2022/03/22 04:17:18;;;;;;;36.15;17.50;;;;;;;9.22;45.88;102673.69;5093824;28;20090;-61
2022/03/22 04:19:45;;;;;;;37.45;16.83;;;;;;;9.22;45.33;102671.03;5076653;28;20047;-61
2022/03/22 04:22:13;;;;;;;30.77;16.83;;;;;;;9.23;44.73;102673.59;5076511;28;20506;-61
2022/03/22 04:24:58;;;;;;;34.67;16.77;;;;;;;9.20;45.18;102676.47;5077595;28;20048;-61
2022/03/22 04:33:13;;;;;;;39.85;17.05;;;;;;;9.12;45.47;102678.75;5094461;28;20044;-61
2022/03/22 04:35:40;;;;;;;36.92;16.85;;;;;;;9.14;45.25;102674.19;5092717;28;20119;-61
2022/03/22 04:38:07;;;;;;;39.28;16.92;;;;;;;9.10;45.58;102675.34;5076602;28;20051;-61
2022/03/22 04:40:35;;;;;;;33.90;16.88;;;;;;;9.14;45.53;102674.19;5076271;28;20044;-61
2022/03/22 04:43:01;;;;;;;31.52;16.67;;;;;;;9.07;45.19;102678.19;5094492;28;20040;-61
2022/03/22 04:45:30;;;;;;;33.80;16.33;;;;;;;9.04;45.17;102670.44;5093164;28;20097;-61
2022/03/22 04:47:57;;;;;;;31.50;16.02;;;;;;;9.13;43.97;102682.22;5075432;28;20044;-61
2022/03/22 04:50:23;;;;;;;37.00;16.67;;;;;;;9.10;43.95;102683.28;5093273;28;20119;-62
2022/03/22 04:58:23;;;;;;;31.80;16.60;;;;;;;8.87;44.96;102678.59;5093025;28;20048;-61
2022/03/22 05:00:50;;;;;;;32.65;16.15;;;;;;;8.91;44.30;102680.09;5093760;28;20043;-61
2022/03/22 05:03:19;;;;;;;35.08;15.43;;;;;;;8.90;45.23;102678.41;5075505;28;20040;-63
2022/03/22 05:08:32;;;;;;;36.17;16.00;;;;;;;8.88;45.08;102680.28;5060816;28;20062;-61
2022/03/22 05:10:59;;;;;;;33.40;16.05;;;;;;;8.87;44.83;102684.72;5075854;28;20561;-61
2022/03/22 05:13:26;;;;;;;39.83;17.20;;;;;;;8.83;44.67;102688.50;5092672;28;20044;-62
2022/03/22 05:15:53;;;;;;;34.88;16.45;;;;;;;8.84;43.92;102688.41;5092603;28;20036;-62
2022/03/22 05:18:20;;;;;;;37.13;17.65;;;;;;;8.84;44.15;102690.19;5075870;28;20442;-62
2022/03/22 05:20:47;;;;;;;32.22;16.55;;;;;;;8.82;44.56;102687.66;5092337;28;20052;-62
2022/03/22 05:23:16;;;;;;;35.53;17.08;;;;;;;8.81;44.37;102693.06;5092059;28;20479;-62
2022/03/22 05:25:43;;;;;;;34.13;16.88;;;;;;;8.81;44.21;102695.69;5091696;28;20093;-62
2022/03/22 05:28:11;;;;;;;32.25;15.88;;;;;;;8.83;44.58;102693.81;5093693;28;20123;-60
2022/03/22 05:30:37;;;;;;;30.17;16.58;;;;;;;8.88;44.35;102697.03;5091962;28;20097;-62
2022/03/22 05:33:04;;;;;;;35.13;15.90;;;;;;;8.87;44.06;102705.88;5074987;28;20492;-62
2022/03/22 05:35:31;;;;;;;34.70;16.15;;;;;;;8.84;44.61;102703.44;5092935;28;20044;-62
2022/03/22 05:37:58;;;;;;;34.17;17.38;;;;;;;8.85;44.51;102702.50;5092178;28;20093;-60
2022/03/22 05:40:24;;;;;;;33.47;16.67;;;;;;;8.80;43.70;102702.78;5092093;28;20040;-62
2022/03/22 05:42:52;;;;;;;32.03;16.08;;;;;;;8.80;43.63;102704.56;5058600;28;20554;-62
2022/03/22 05:45:19;;;;;;;34.97;15.98;;;;;;;8.76;44.64;102703.91;5092899;28;20521;-62
2022/03/22 05:47:46;;;;;;;32.50;17.42;;;;;;;8.73;45.55;102709.41;5091547;28;20036;-62
2022/03/22 05:50:12;;;;;;;33.63;16.33;;;;;;;8.71;43.80;102713.91;5091513;28;20127;-62
2022/03/22 05:52:43;;;;;;;38.05;16.52;;;;;;;8.83;43.06;102713.16;5075339;28;20050;-62
2022/03/22 05:55:11;;;;;;;34.60;16.23;;;;;;;8.91;43.41;102715.34;5074901;28;20063;-62
2022/03/22 05:57:37;;;;;;;31.05;16.25;;;;;;;8.88;44.39;102715.53;5091827;28;20044;-62
2022/03/22 06:00:06;;;;;;;36.72;16.65;;;;;;;8.69;42.92;102714.97;5057825;28;20458;-62
2022/03/22 06:02:37;;;;;;;29.55;16.65;;;;;;;8.76;43.64;102718.94;5091153;28;20052;-61
2022/03/22 06:05:08;;;;;;;31.67;15.63;;;;;;;8.75;43.07;102720.75;5085471;28;20123;-61
2022/03/22 06:07:36;;;;;;;33.03;16.40;;;;;;;8.77;43.17;102723.31;5089622;28;20130;-61
2022/03/22 06:10:04;;;;;;;31.13;15.40;;;;;;;8.86;43.57;102722.72;5100406;28;20044;-61
2022/03/22 06:12:55;;;;;;;33.72;16.20;;;;;;;8.71;42.86;102727.16;5095330;28;20058;-61
2022/03/22 06:15:24;;;;;;;36.70;16.60;;;;;;;8.79;43.12;102729.34;5073898;28;20035;-61
2022/03/22 06:17:55;;;;;;;31.92;15.77;;;;;;;8.84;42.91;102728.13;5071760;28;20048;-61
2022/03/22 06:20:25;;;;;;;32.00;14.90;;;;;;;8.88;43.86;102733.19;5071008;28;20398;-61
2022/03/22 06:22:53;;;;;;;37.47;16.58;;;;;;;8.90;43.95;102736.63;5072612;28;20041;-61
2022/03/22 06:25:20;;;;;;;36.58;16.15;;;;;;;9.02;44.03;102735.84;5071203;28;20041;-61
2022/03/22 06:27:49;;;;;;;45.05;16.52;;;;;;;9.04;43.00;102734.00;5091330;28;20535;-61
2022/03/22 06:30:16;;;;;;;33.03;15.55;;;;;;;8.97;43.42;102736.16;5091662;28;20122;-61
2022/03/22 06:32:46;;;;;;;32.67;16.23;;;;;;;9.12;42.84;102737.00;5091385;28;20047;-61
2022/03/22 06:35:16;;;;;;;39.72;16.98;;;;;;;9.07;42.32;102740.88;5045117;28;20040;-61
2022/03/22 06:37:44;;;;;;;30.33;15.90;;;;;;;9.10;42.21;102736.25;5054939;28;20123;-63
2022/03/22 06:40:12;;;;;;;31.05;16.02;;;;;;;9.15;41.58;102739.47;5087820;28;20040;-63
2022/03/22 06:42:40;;;;;;;31.25;15.30;;;;;;;9.20;42.56;102747.09;5074611;28;20040;-63
2022/03/22 06:45:10;;;;;;;36.03;14.80;;;;;;;9.25;43.18;102739.72;5091036;28;20125;-62
2022/03/22 06:47:41;;;;;;;30.15;15.60;;;;;;;9.18;42.88;102741.06;5090908;28;20044;-62
2022/03/22 06:50:10;;;;;;;28.60;15.95;;;;;;;9.26;42.78;102748.50;5074238;28;20048;-62
2022/03/22 06:52:37;;;;;;;28.52;15.35;;;;;;;9.28;42.85;102747.47;5074502;28;20075;-62
2022/03/22 06:55:06;;;;;;;29.10;15.48;;;;;;;9.31;41.96;102749.91;5090683;28;20039;-62
2022/03/22 06:57:34;;;;;;;32.45;15.80;;;;;;;9.33;42.04;102748.06;5091825;28;20052;-62
2022/03/22 07:00:04;;;;;;;32.45;15.35;;;;;;;9.44;41.39;102751.78;5090855;28;20047;-62
2022/03/22 07:02:31;;;;;;;30.67;16.13;;;;;;;9.42;41.93;102749.25;5055591;28;20055;-61
2022/03/22 07:04:58;;;;;;;30.30;15.73;;;;;;;9.40;40.23;102746.72;5068840;28;20052;-62
2022/03/22 07:07:25;;;;;;;34.30;16.50;;;;;;;9.52;40.80;102750.38;5073139;28;20131;-62
2022/03/22 07:09:52;;;;;;;30.58;15.35;;;;;;;9.48;40.93;102750.63;5092231;28;20165;-62
2022/03/22 07:12:18;;;;;;;32.08;16.15;;;;;;;9.82;40.09;102751.13;5094369;28;20098;-61
2022/03/22 07:14:45;;;;;;;32.75;15.55;;;;;;;9.71;40.63;102757.13;5078220;28;20496;-61
2022/03/22 07:17:12;;;;;;;35.47;16.60;;;;;;;9.76;41.21;102755.88;5096215;28;20075;-61
2022/03/22 07:19:39;;;;;;;33.47;15.77;;;;;;;9.83;39.68;102761.63;5094526;28;20048;-61
2022/03/22 07:22:06;;;;;;;28.77;15.35;;;;;;;9.83;40.62;102751.03;5094553;28;20043;-61
2022/03/22 07:24:34;;;;;;;36.97;16.75;;;;;;;9.86;40.31;102758.78;5095025;28;20095;-62
2022/03/22 07:27:00;;;;;;;39.65;16.30;;;;;;;10.00;41.26;102763.19;5095824;28;20052;-61
2022/03/22 07:29:28;;;;;;;33.83;16.02;;;;;;;10.07;41.29;102763.63;5094803;28;20039;-61
2022/03/22 07:31:56;;;;;;;31.08;16.85;;;;;;;10.12;39.61;102757.06;5088745;28;20044;-61
2022/03/22 07:34:24;;;;;;;32.33;15.50;;;;;;;10.23;39.65;102764.31;5073970;28;20049;-61
2022/03/22 07:36:53;;;;;;;30.65;16.40;;;;;;;10.25;39.17;102762.41;5074179;28;20075;-61
2022/03/22 07:39:22;;;;;;;34.83;16.27;;;;;;;10.27;38.91;102762.31;5074431;28;20040;-61
2022/03/22 07:41:49;;;;;;;34.97;16.15;;;;;;;10.45;38.19;102755.78;5095887;28;20079;-61
2022/03/22 07:44:17;;;;;;;31.50;15.82;;;;;;;10.53;38.14;102753.47;5077637;28;20059;-61
2022/03/22 07:46:45;;;;;;;30.40;15.75;;;;;;;10.65;37.79;102758.91;5095748;28;20055;-62
2022/03/22 07:54:46;;;;;;;29.85;15.55;;;;;;;10.82;37.24;102763.88;5057181;28;20095;-62
2022/03/22 07:57:12;;;;;;;32.83;15.65;;;;;;;10.95;38.16;102763.88;5090923;28;20094;-62
2022/03/22 07:59:39;;;;;;;34.17;16.60;;;;;;;11.14;36.62;102768.75;5073759;28;20044;-62
2022/03/22 08:02:07;;;;;;;36.00;16.13;;;;;;;11.09;37.49;102771.72;5073867;28;20070;-61
2022/03/22 08:04:35;;;;;;;29.58;16.17;;;;;;;11.25;37.39;102768.84;5062182;28;20032;-61
2022/03/22 08:07:01;;;;;;;31.13;16.23;;;;;;;11.21;37.71;102769.19;5093470;28;20047;-61
2022/03/22 08:09:29;;;;;;;32.28;15.88;;;;;;;11.23;37.24;102777.88;5093048;28;20050;-61
2022/03/22 08:11:56;;;;;;;30.20;16.80;;;;;;;11.29;37.64;102772.97;5100935;28;20491;-61
2022/03/22 08:14:22;;;;;;;29.55;15.38;;;;;;;11.64;37.89;102771.38;5102489;28;20040;-61
2022/03/22 08:16:49;;;;;;;63.88;17.02;;;;;;;11.67;37.59;102774.69;5108237;28;20061;-61
2022/03/22 08:19:19;;;;;;;37.03;16.08;;;;;;;11.72;37.02;102767.22;5090635;28;20040;-61
2022/03/22 08:21:48;;;;;;;31.58;16.25;;;;;;;11.93;37.14;102776.41;5080276;28;20048;-61
2022/03/22 08:24:15;;;;;;;34.15;17.17;;;;;;;12.10;36.89;102776.88;5098570;27;20053;-61
2022/03/22 08:26:43;;;;;;;111.35;54.80;;;;;;;12.34;35.86;102777.81;5087956;28;20392;-61
2022/03/22 08:29:09;;;;;;;35.35;17.98;;;;;;;12.54;35.38;102776.28;5091460;28;20534;-62
2022/03/22 08:31:38;;;;;;;37.33;16.35;;;;;;;12.65;35.12;102773.66;5068746;28;20044;-62
2022/03/22 08:34:05;;;;;;;33.85;16.48;;;;;;;12.67;33.95;102783.22;5088088;28;20068;-62
2022/03/22 08:36:33;;;;;;;31.63;17.10;;;;;;;12.67;34.15;102777.88;5089946;28;20041;-62
2022/03/22 08:39:00;;;;;;;33.15;16.55;;;;;;;12.74;33.58;102764.94;5076353;28;20047;-62
2022/03/22 08:41:27;;;;;;;34.28;17.13;;;;;;;12.86;33.34;102771.13;5056061;28;20040;-62
2022/03/22 08:43:54;;;;;;;31.35;15.75;;;;;;;12.79;32.50;102778.75;5066243;28;20051;-61
2022/03/22 08:46:24;;;;;;;52.08;26.77;;;;;;;12.97;32.75;102770.28;5092992;28;20051;-61
2022/03/22 08:48:52;;;;;;;53.05;18.73;;;;;;;13.13;32.39;102770.78;5077072;28;20048;-61
2022/03/22 08:51:20;;;;;;;42.88;16.25;;;;;;;13.23;32.33;102768.25;5093966;28;20503;-61
2022/03/22 08:53:47;;;;;;;31.98;16.35;;;;;;;13.15;31.60;102768.88;5076367;28;20058;-61
2022/03/22 08:56:14;;;;;;;36.58;16.38;;;;;;;13.21;32.35;102763.03;5092923;28;20036;-61
2022/03/22 08:58:41;;;;;;;34.05;16.50;;;;;;;13.35;30.96;102766.44;5092944;28;20044;-61
2022/03/22 09:01:08;;;;;;;32.20;16.70;;;;;;;13.29;31.70;102772.25;5073872;28;20479;-63
2022/03/22 09:03:36;;;;;;;29.63;15.63;;;;;;;13.25;32.16;102766.31;5064097;28;20098;-61
2022/03/22 09:06:12;;;;;;;30.27;16.50;;;;;;;13.44;31.93;102761.22;5072407;28;20482;-61
2022/03/22 09:08:40;;;;;;;32.40;16.50;;;;;;;13.56;31.31;102766.53;5092376;28;20580;-61
2022/03/22 09:11:09;;;;;;;32.53;16.67;;;;;;;13.90;31.68;102764.63;5092801;28;20044;-61
2022/03/22 09:13:38;;;;;;;32.13;16.80;;;;;;;13.92;31.17;102762.69;5091100;28;20047;-61
2022/03/22 09:16:12;;;;;;;36.58;16.27;;;;;;;14.22;30.04;102769.09;5109987;28;20039;-62
2022/03/22 09:18:39;;;;;;;30.85;15.07;;;;;;;14.51;29.14;102761.28;5092361;28;20056;-62
2022/03/22 09:21:05;;;;;;;34.83;16.85;;;;;;;14.77;28.72;102760.91;5072895;28;20039;-62
2022/03/22 09:23:32;;;;;;;32.97;15.98;;;;;;;15.26;27.74;102759.31;5089552;28;20090;-62
2022/03/22 09:25:59;;;;;;;32.38;16.92;;;;;;;16.11;27.67;102762.41;5091486;28;20775;-62
2022/03/22 09:28:25;;;;;;;36.58;16.63;;;;;;;17.39;25.47;102755.69;5097492;28;20044;-62
2022/03/22 09:30:52;;;;;;;33.15;17.77;;;;;;;18.33;24.89;102755.25;5073574;28;20389;-62
2022/03/22 09:33:20;;;;;;;29.08;17.38;;;;;;;19.41;22.47;102764.75;5089826;28;20044;-60
2022/03/22 09:35:48;;;;;;;36.42;18.13;;;;;;;20.02;22.40;102758.16;5091276;28;20044;-62
2022/03/22 09:38:15;;;;;;;33.50;18.08;;;;;;;20.79;20.96;102751.53;5090829;28;20520;-63
2022/03/22 09:40:42;;;;;;;33.30;17.73;;;;;;;21.05;20.68;102754.81;5055890;28;20055;-63
2022/03/22 09:43:09;;;;;;;29.85;17.02;;;;;;;21.40;20.30;102747.22;5074871;28;20483;-63
2022/03/22 09:45:36;;;;;;;33.67;17.67;;;;;;;21.94;20.04;102746.38;5092075;28;20052;-60
2022/03/22 09:48:04;;;;;;;29.50;17.08;;;;;;;22.92;18.68;102755.41;5074863;28;20064;-63
2022/03/22 09:53:17;;;;;;;32.90;17.48;;;;;;;23.56;17.60;102740.38;5092536;28;20101;-63
2022/03/22 09:55:45;;;;;;;31.15;17.55;;;;;;;24.16;16.63;102740.94;5074963;28;20044;-63
2022/03/22 09:58:13;;;;;;;33.47;17.70;;;;;;;24.03;17.54;102735.38;5075119;28;20040;-64
2022/03/22 10:00:41;;;;;;;35.88;17.17;;;;;;;24.38;16.63;102741.72;5075440;28;20032;-61
2022/03/22 10:03:09;;;;;;;30.83;18.02;;;;;;;24.49;16.31;102746.59;5096667;28;20102;-61
2022/03/22 10:05:36;;;;;;;31.90;17.23;;;;;;;24.95;16.28;102745.19;5069468;28;20106;-61
2022/03/22 10:08:07;;;;;;;32.55;17.55;;;;;;;25.89;15.16;102727.28;5088569;28;20048;-61
2022/03/22 10:10:34;;;;;;;;;;;;;;;25.59;14.52;102732.25;5090475;28;20090;-62
2022/03/22 10:13:04;;;;;;;30.40;16.77;;;;;;;25.72;14.76;102731.44;5098884;28;19923;-62
2022/03/22 10:15:34;;;;;;;29.30;16.35;;;;;;;25.84;14.60;102733.34;5074318;28;20071;-62
2022/03/22 10:18:05;;;;;;;22.90;15.00;;;;;;;26.78;14.13;102731.38;5078144;28;20138;-62
2022/03/22 10:20:34;;;;;;;23.15;14.25;;;;;;;26.68;13.76;102733.72;5071204;28;20054;-61
2022/03/22 10:23:03;;;;;;;29.85;15.98;;;;;;;26.30;13.97;102736.28;5072441;28;20443;-61
2022/03/22 10:25:32;;;;;;;28.25;15.23;;;;;;;27.17;12.95;102726.81;5074759;28;20052;-62
2022/03/22 10:28:02;;;;;;;25.77;16.98;;;;;;;27.37;13.04;102726.72;5082855;28;20542;-62
2022/03/22 10:30:30;;;;;;;25.27;15.05;;;;;;;27.30;12.42;102731.38;5083492;28;20048;-63
2022/03/22 10:32:57;;;;;;;30.27;14.60;;;;;;;27.19;12.79;102726.59;5077353;28;20044;-62
2022/03/22 10:35:29;;;;;;;26.95;17.35;;;;;;;27.23;13.67;102727.81;5073729;28;20515;-63
2022/03/22 10:38:02;;;;;;;26.60;15.45;;;;;;;26.92;12.57;102729.44;5084045;28;20392;-63
2022/03/22 10:40:32;;;;;;;25.55;15.18;;;;;;;26.83;13.34;102724.47;5080359;28;20051;-63
2022/03/22 10:43:01;;;;;;;28.08;15.02;;;;;;;26.99;13.07;102724.78;5097102;28;20040;-63
2022/03/22 10:45:29;;;;;;;34.13;15.07;;;;;;;25.84;13.40;102722.47;5104352;28;20032;-63
2022/03/22 10:47:56;;;;;;;31.45;15.40;;;;;;;25.51;15.10;102724.31;5058303;28;20036;-63
2022/03/22 10:50:24;;;;;;;29.70;15.38;;;;;;;25.55;15.12;102722.88;5075513;28;20040;-63
2022/03/22 10:52:55;;;;;;;30.70;15.48;;;;;;;24.79;14.57;102721.94;5059110;28;20055;-63
2022/03/22 10:55:23;;;;;;;30.85;14.95;;;;;;;24.30;15.55;102715.59;5075548;28;20044;-62
2022/03/22 10:57:54;;;;;;;34.60;15.98;;;;;;;23.87;16.98;102709.44;5078645;28;20059;-63
2022/03/22 11:00:22;;;;;;;30.35;16.08;;;;;;;23.06;16.94;102705.00;5095151;28;20043;-62
2022/03/22 11:02:52;;;;;;;29.80;16.88;;;;;;;23.27;16.93;102708.81;5076244;28;20048;-63
2022/03/22 11:05:20;;;;;;;29.77;16.40;;;;;;;22.80;17.98;102714.44;5074923;28;20079;-62
2022/03/22 11:07:49;;;;;;;30.48;15.57;;;;;;;22.88;18.80;102709.94;5059114;28;20047;-61
2022/03/22 11:10:25;;;;;;;26.83;16.33;;;;;;;23.37;18.12;102699.31;5061131;28;20144;-62
2022/03/22 11:12:52;;;;;;;33.03;16.80;;;;;;;23.99;17.73;102694.28;5059687;28;20131;-62
2022/03/22 11:15:20;;;;;;;28.88;16.30;;;;;;;24.91;16.87;102709.47;5077972;28;20167;-63
2022/03/22 11:17:51;;;;;;;39.45;16.83;;;;;;;25.55;16.41;102693.81;5078851;28;20365;-62
2022/03/22 11:20:18;;;;;;;28.45;15.95;;;;;;;25.90;15.62;102692.78;5093935;28;20036;-62
2022/03/22 11:22:49;;;;;;;30.52;16.27;;;;;;;26.77;14.87;102697.03;5051478;28;20122;-62
2022/03/22 11:25:19;;;;;;;28.20;16.17;;;;;;;26.73;15.03;102689.53;5080092;28;20047;-62
2022/03/22 11:27:57;;;;;;;28.20;16.27;;;;;;;27.62;13.99;102689.69;5100810;28;20050;-63
2022/03/22 11:30:26;;;;;;;45.53;16.92;;;;;;;28.03;13.85;102686.38;5090479;28;20075;-62
2022/03/22 11:35:47;;;;;;;34.95;16.33;;;;;;;27.23;14.36;102675.22;5068878;28;20044;-62
2022/03/22 11:38:34;;;;;;;31.05;16.80;;;;;;;28.30;12.75;102681.50;5077093;28;20115;-62
2022/03/22 11:43:48;;;;;;;29.30;16.40;;;;;;;27.64;13.55;102676.66;5044273;28;20091;-62
2022/03/22 11:46:15;;;;;;;26.58;16.70;;;;;;;27.57;13.83;102663.91;5076235;28;20040;-62
2022/03/22 11:48:42;;;;;;;28.17;16.25;;;;;;;28.59;12.73;102678.28;5094578;28;20492;-63
2022/03/22 11:51:10;;;;;;;35.03;15.82;;;;;;;28.68;12.35;102668.72;5094897;28;20040;-63
2022/03/22 11:53:42;;;;;;;33.22;16.15;;;;;;;28.44;12.93;102663.09;5094631;28;20048;-63
2022/03/22 11:56:11;;;;;;;33.42;15.73;;;;;;;28.18;12.64;102660.66;5094314;28;20054;-63